sensor_id;sensor_type;location;lat;lon;timestamp;temperature;humidity
7842;DHT22;3966;51.052;13.820;2022-08-11T00:00:39;17.90;99.90
7842;DHT22;3966;51.052;13.820;2022-08-11T00:03:09;17.80;99.90
7842;DHT22;3966;51.052;13.820;2022-08-11T00:05:50;17.80;99.90
7842;DHT22;3966;51.052;13.820;2022-08-11T00:08:26;17.80;99.90
7842;DHT22;3966;51.052;13.820;2022-08-11T00:10:56;17.80;99.90
7842;DHT22;3966;51.052;13.820;2022-08-11T00:13:34;17.70;99.90
7842;DHT22;3966;51.052;13.820;2022-08-11T00:16:01;17.70;99.90
7842;DHT22;3966;51.052;13.820;2022-08-11T00:18:29;17.60;99.90
7842;DHT22;3966;51.052;13.820;2022-08-11T00:21:02;17.60;99.90
7842;DHT22;3966;51.052;13.820;2022-08-11T00:23:28;17.60;99.90
7842;DHT22;3966;51.052;13.820;2022-08-11T00:25:54;17.60;99.90
7842;DHT22;3966;51.052;13.820;2022-08-11T00:28:28;17.50;99.90
7842;DHT22;3966;51.052;13.820;2022-08-11T00:30:57;17.50;99.90
7842;DHT22;3966;51.052;13.820;2022-08-11T00:33:31;17.40;99.90
7842;DHT22;3966;51.052;13.820;2022-08-11T00:35:58;17.40;99.90
7842;DHT22;3966;51.052;13.820;2022-08-11T00:38:29;17.40;99.90
7842;DHT22;3966;51.052;13.820;2022-08-11T00:47:07;17.20;99.90
7842;DHT22;3966;51.052;13.820;2022-08-11T00:58:48;17.20;99.90
7842;DHT22;3966;51.052;13.820;2022-08-11T01:01:29;17.00;99.90
7842;DHT22;3966;51.052;13.820;2022-08-11T01:07:49;17.00;99.90
7842;DHT22;3966;51.052;13.820;2022-08-11T01:13:14;17.00;99.90
7842;DHT22;3966;51.052;13.820;2022-08-11T01:21:35;16.80;99.90
7842;DHT22;3966;51.052;13.820;2022-08-11T01:30:19;16.80;99.90
7842;DHT22;3966;51.052;13.820;2022-08-11T01:36:01;16.70;99.90
7842;DHT22;3966;51.052;13.820;2022-08-11T01:39:03;16.70;99.90
7842;DHT22;3966;51.052;13.820;2022-08-11T01:50:15;16.70;99.90
7842;DHT22;3966;51.052;13.820;2022-08-11T01:56:01;16.50;99.90
7842;DHT22;3966;51.052;13.820;2022-08-11T02:01:19;16.40;99.90
7842;DHT22;3966;51.052;13.820;2022-08-11T02:17:59;16.20;99.90
7842;DHT22;3966;51.052;13.820;2022-08-11T02:20:44;16.20;99.90
7842;DHT22;3966;51.052;13.820;2022-08-11T02:29:02;16.10;99.90
7842;DHT22;3966;51.052;13.820;2022-08-11T02:37:23;16.00;99.90
7842;DHT22;3966;51.052;13.820;2022-08-11T02:42:31;15.90;99.90
7842;DHT22;3966;51.052;13.820;2022-08-11T02:51:38;15.80;99.90
7842;DHT22;3966;51.052;13.820;2022-08-11T02:54:26;15.90;99.90
7842;DHT22;3966;51.052;13.820;2022-08-11T02:57:03;15.90;99.90
7842;DHT22;3966;51.052;13.820;2022-08-11T02:59:40;15.90;99.90
7842;DHT22;3966;51.052;13.820;2022-08-11T03:10:47;15.70;99.90
7842;DHT22;3966;51.052;13.820;2022-08-11T03:14:01;15.60;99.90
7842;DHT22;3966;51.052;13.820;2022-08-11T03:20:02;15.70;99.90
7842;DHT22;3966;51.052;13.820;2022-08-11T03:31:14;15.60;99.90
7842;DHT22;3966;51.052;13.820;2022-08-11T03:33:50;15.60;99.90
7842;DHT22;3966;51.052;13.820;2022-08-11T03:36:50;15.60;99.90
7842;DHT22;3966;51.052;13.820;2022-08-11T03:47:45;15.50;99.90
7842;DHT22;3966;51.052;13.820;2022-08-11T03:53:09;15.40;99.90
7842;DHT22;3966;51.052;13.820;2022-08-11T04:11:00;15.20;99.90
7842;DHT22;3966;51.052;13.820;2022-08-11T04:14:03;15.30;99.90
7842;DHT22;3966;51.052;13.820;2022-08-11T04:19:54;15.20;99.90
7842;DHT22;3966;51.052;13.820;2022-08-11T04:22:34;15.20;99.90
7842;DHT22;3966;51.052;13.820;2022-08-11T04:28:19;15.20;99.90
7842;DHT22;3966;51.052;13.820;2022-08-11T04:33:43;15.20;99.90
7842;DHT22;3966;51.052;13.820;2022-08-11T04:36:36;15.20;99.90
7842;DHT22;3966;51.052;13.820;2022-08-11T04:45:25;15.20;99.90
7842;DHT22;3966;51.052;13.820;2022-08-11T04:48:31;15.30;99.90
7842;DHT22;3966;51.052;13.820;2022-08-11T04:51:47;15.30;99.90
7842;DHT22;3966;51.052;13.820;2022-08-11T04:57:50;15.20;99.90
7842;DHT22;3966;51.052;13.820;2022-08-11T05:04:06;15.30;99.90
7842;DHT22;3966;51.052;13.820;2022-08-11T05:12:56;15.40;99.90
7842;DHT22;3966;51.052;13.820;2022-08-11T05:15:57;15.40;99.90
7842;DHT22;3966;51.052;13.820;2022-08-11T05:18:51;15.40;99.90
7842;DHT22;3966;51.052;13.820;2022-08-11T05:21:38;15.40;99.90
7842;DHT22;3966;51.052;13.820;2022-08-11T05:24:36;15.50;99.90
7842;DHT22;3966;51.052;13.820;2022-08-11T05:27:29;15.50;99.90
7842;DHT22;3966;51.052;13.820;2022-08-11T05:30:15;15.50;99.90
7842;DHT22;3966;51.052;13.820;2022-08-11T05:33:09;15.50;99.90
7842;DHT22;3966;51.052;13.820;2022-08-11T05:38:33;15.60;99.90
7842;DHT22;3966;51.052;13.820;2022-08-11T05:41:23;15.70;99.90
7842;DHT22;3966;51.052;13.820;2022-08-11T05:44:09;15.70;99.90
7842;DHT22;3966;51.052;13.820;2022-08-11T05:46:53;15.70;99.90
7842;DHT22;3966;51.052;13.820;2022-08-11T05:49:38;15.60;99.90
7842;DHT22;3966;51.052;13.820;2022-08-11T05:52:24;15.70;99.90
7842;DHT22;3966;51.052;13.820;2022-08-11T05:55:09;15.70;99.90
7842;DHT22;3966;51.052;13.820;2022-08-11T05:58:03;15.80;99.90
7842;DHT22;3966;51.052;13.820;2022-08-11T06:00:30;15.90;99.90
7842;DHT22;3966;51.052;13.820;2022-08-11T06:02:58;15.90;99.90
7842;DHT22;3966;51.052;13.820;2022-08-11T06:05:33;16.00;99.90
7842;DHT22;3966;51.052;13.820;2022-08-11T06:07:59;16.00;99.90
7842;DHT22;3966;51.052;13.820;2022-08-11T06:10:33;16.10;99.90
7842;DHT22;3966;51.052;13.820;2022-08-11T06:12:59;16.20;99.90
7842;DHT22;3966;51.052;13.820;2022-08-11T06:15:26;16.30;99.90
7842;DHT22;3966;51.052;13.820;2022-08-11T06:17:54;16.30;99.90
7842;DHT22;3966;51.052;13.820;2022-08-11T06:20:20;16.40;99.90
7842;DHT22;3966;51.052;13.820;2022-08-11T06:22:55;16.50;99.90
7842;DHT22;3966;51.052;13.820;2022-08-11T06:25:22;16.60;99.90
7842;DHT22;3966;51.052;13.820;2022-08-11T06:27:54;16.70;99.90
7842;DHT22;3966;51.052;13.820;2022-08-11T06:30:38;16.70;99.90
7842;DHT22;3966;51.052;13.820;2022-08-11T06:36:12;17.00;99.90
7842;DHT22;3966;51.052;13.820;2022-08-11T06:38:58;17.10;99.90
7842;DHT22;3966;51.052;13.820;2022-08-11T06:41:44;17.20;99.90
7842;DHT22;3966;51.052;13.820;2022-08-11T06:46:39;17.50;99.90
7842;DHT22;3966;51.052;13.820;2022-08-11T06:49:09;17.60;99.90
7842;DHT22;3966;51.052;13.820;2022-08-11T06:51:59;17.80;99.90
7842;DHT22;3966;51.052;13.820;2022-08-11T06:54:28;17.90;99.90
7842;DHT22;3966;51.052;13.820;2022-08-11T06:56:56;18.00;99.90
7842;DHT22;3966;51.052;13.820;2022-08-11T06:59:40;18.20;99.90
7842;DHT22;3966;51.052;13.820;2022-08-11T07:02:35;18.30;99.90
7842;DHT22;3966;51.052;13.820;2022-08-11T07:05:10;18.50;99.90
7842;DHT22;3966;51.052;13.820;2022-08-11T07:14:04;18.90;99.90
7842;DHT22;3966;51.052;13.820;2022-08-11T07:16:49;19.10;99.90
7842;DHT22;3966;51.052;13.820;2022-08-11T07:19:20;19.30;99.90
7842;DHT22;3966;51.052;13.820;2022-08-11T07:22:09;19.40;99.90
7842;DHT22;3966;51.052;13.820;2022-08-11T07:25:23;19.60;99.90
7842;DHT22;3966;51.052;13.820;2022-08-11T07:28:17;19.70;99.90
7842;DHT22;3966;51.052;13.820;2022-08-11T07:31:08;19.90;99.90
7842;DHT22;3966;51.052;13.820;2022-08-11T07:34:03;20.00;99.90
7842;DHT22;3966;51.052;13.820;2022-08-11T07:36:32;20.10;99.90
7842;DHT22;3966;51.052;13.820;2022-08-11T07:38:59;20.20;99.90
7842;DHT22;3966;51.052;13.820;2022-08-11T07:41:26;20.30;99.90
7842;DHT22;3966;51.052;13.820;2022-08-11T07:43:57;20.50;99.90
7842;DHT22;3966;51.052;13.820;2022-08-11T07:46:45;20.60;99.90
7842;DHT22;3966;51.052;13.820;2022-08-11T07:49:33;20.80;99.90
7842;DHT22;3966;51.052;13.820;2022-08-11T07:52:18;20.90;99.90
7842;DHT22;3966;51.052;13.820;2022-08-11T07:55:32;21.00;99.90
7842;DHT22;3966;51.052;13.820;2022-08-11T07:57:52;21.20;99.90
7842;DHT22;3966;51.052;13.820;2022-08-11T08:00:45;21.40;99.90
7842;DHT22;3966;51.052;13.820;2022-08-11T08:03:29;21.50;99.90
7842;DHT22;3966;51.052;13.820;2022-08-11T08:06:15;21.70;99.90
7842;DHT22;3966;51.052;13.820;2022-08-11T08:09:00;21.80;99.90
7842;DHT22;3966;51.052;13.820;2022-08-11T08:11:45;21.90;99.90
7842;DHT22;3966;51.052;13.820;2022-08-11T08:14:30;22.10;99.90
7842;DHT22;3966;51.052;13.820;2022-08-11T08:17:15;22.30;99.90
7842;DHT22;3966;51.052;13.820;2022-08-11T08:20:01;22.40;99.90
7842;DHT22;3966;51.052;13.820;2022-08-11T08:22:28;22.50;99.90
7842;DHT22;3966;51.052;13.820;2022-08-11T08:24:55;22.70;99.90
7842;DHT22;3966;51.052;13.820;2022-08-11T08:27:21;22.90;99.90
7842;DHT22;3966;51.052;13.820;2022-08-11T08:29:47;23.10;99.90
7842;DHT22;3966;51.052;13.820;2022-08-11T08:32:33;23.20;99.90
7842;DHT22;3966;51.052;13.820;2022-08-11T08:34:59;23.30;99.90
7842;DHT22;3966;51.052;13.820;2022-08-11T08:37:26;23.50;99.90
7842;DHT22;3966;51.052;13.820;2022-08-11T08:39:52;23.60;99.90
7842;DHT22;3966;51.052;13.820;2022-08-11T08:42:29;23.80;99.90
7842;DHT22;3966;51.052;13.820;2022-08-11T08:44:58;24.00;99.90
7842;DHT22;3966;51.052;13.820;2022-08-11T08:47:27;24.20;99.90
7842;DHT22;3966;51.052;13.820;2022-08-11T08:50:00;24.40;99.90
7842;DHT22;3966;51.052;13.820;2022-08-11T08:52:33;24.60;99.90
7842;DHT22;3966;51.052;13.820;2022-08-11T08:55:03;24.80;99.90
7842;DHT22;3966;51.052;13.820;2022-08-11T08:57:33;24.90;99.20
7842;DHT22;3966;51.052;13.820;2022-08-11T09:00:01;25.00;98.20
7842;DHT22;3966;51.052;13.820;2022-08-11T09:02:28;24.90;96.90
7842;DHT22;3966;51.052;13.820;2022-08-11T09:04:53;24.90;95.90
7842;DHT22;3966;51.052;13.820;2022-08-11T09:07:22;24.90;95.20
7842;DHT22;3966;51.052;13.820;2022-08-11T09:09:51;24.80;94.60
7842;DHT22;3966;51.052;13.820;2022-08-11T09:12:19;24.80;94.90
7842;DHT22;3966;51.052;13.820;2022-08-11T09:14:47;24.80;94.50
7842;DHT22;3966;51.052;13.820;2022-08-11T09:17:28;24.80;94.10
7842;DHT22;3966;51.052;13.820;2022-08-11T09:20:24;24.70;94.40
7842;DHT22;3966;51.052;13.820;2022-08-11T09:22:56;24.70;94.30
7842;DHT22;3966;51.052;13.820;2022-08-11T09:25:41;24.70;94.60
7842;DHT22;3966;51.052;13.820;2022-08-11T09:28:27;24.60;93.90
7842;DHT22;3966;51.052;13.820;2022-08-11T09:30:56;24.60;94.40
7842;DHT22;3966;51.052;13.820;2022-08-11T09:33:23;24.70;93.70
7842;DHT22;3966;51.052;13.820;2022-08-11T09:35:50;24.80;93.50
7842;DHT22;3966;51.052;13.820;2022-08-11T09:38:18;24.80;93.60
7842;DHT22;3966;51.052;13.820;2022-08-11T09:41:06;24.80;92.90
7842;DHT22;3966;51.052;13.820;2022-08-11T09:43:32;25.00;93.00
7842;DHT22;3966;51.052;13.820;2022-08-11T09:46:23;25.30;92.40
7842;DHT22;3966;51.052;13.820;2022-08-11T09:48:51;25.50;91.90
7842;DHT22;3966;51.052;13.820;2022-08-11T09:51:20;25.60;91.90
7842;DHT22;3966;51.052;13.820;2022-08-11T09:53:46;25.70;91.20
7842;DHT22;3966;51.052;13.820;2022-08-11T09:56:19;25.70;91.40
7842;DHT22;3966;51.052;13.820;2022-08-11T09:59:04;25.70;90.40
7842;DHT22;3966;51.052;13.820;2022-08-11T10:01:53;25.70;91.00
7842;DHT22;3966;51.052;13.820;2022-08-11T10:06:59;26.00;90.00
7842;DHT22;3966;51.052;13.820;2022-08-11T10:09:37;26.20;88.20
7842;DHT22;3966;51.052;13.820;2022-08-11T10:12:10;26.30;88.10
7842;DHT22;3966;51.052;13.820;2022-08-11T10:14:47;26.50;86.30
7842;DHT22;3966;51.052;13.820;2022-08-11T10:17:35;26.40;82.50
7842;DHT22;3966;51.052;13.820;2022-08-11T10:20:02;26.20;82.40
7842;DHT22;3966;51.052;13.820;2022-08-11T10:22:29;26.10;83.00
7842;DHT22;3966;51.052;13.820;2022-08-11T10:25:14;26.40;82.10
7842;DHT22;3966;51.052;13.820;2022-08-11T10:28:06;26.50;81.20
7842;DHT22;3966;51.052;13.820;2022-08-11T10:30:51;26.60;80.80
7842;DHT22;3966;51.052;13.820;2022-08-11T10:33:36;27.10;77.90
7842;DHT22;3966;51.052;13.820;2022-08-11T10:36:20;27.40;74.50
7842;DHT22;3966;51.052;13.820;2022-08-11T10:38:46;27.70;72.70
7842;DHT22;3966;51.052;13.820;2022-08-11T10:41:15;27.80;72.80
7842;DHT22;3966;51.052;13.820;2022-08-11T10:44:01;27.80;71.30
7842;DHT22;3966;51.052;13.820;2022-08-11T10:46:27;27.90;70.50
7842;DHT22;3966;51.052;13.820;2022-08-11T10:49:12;27.90;70.80
7842;DHT22;3966;51.052;13.820;2022-08-11T10:51:38;28.20;67.30
7842;DHT22;3966;51.052;13.820;2022-08-11T10:54:23;28.40;66.40
7842;DHT22;3966;51.052;13.820;2022-08-11T10:57:08;28.50;64.80
7842;DHT22;3966;51.052;13.820;2022-08-11T10:59:56;28.40;63.50
7842;DHT22;3966;51.052;13.820;2022-08-11T11:02:23;28.40;62.20
7842;DHT22;3966;51.052;13.820;2022-08-11T11:07:42;28.40;62.70
7842;DHT22;3966;51.052;13.820;2022-08-11T11:10:11;28.50;61.80
7842;DHT22;3966;51.052;13.820;2022-08-11T11:12:46;28.40;61.50
7842;DHT22;3966;51.052;13.820;2022-08-11T11:15:34;28.70;60.60
7842;DHT22;3966;51.052;13.820;2022-08-11T11:18:27;28.80;58.40
7842;DHT22;3966;51.052;13.820;2022-08-11T11:21:08;29.00;58.60
7842;DHT22;3966;51.052;13.820;2022-08-11T11:26:30;28.40;59.50
7842;DHT22;3966;51.052;13.820;2022-08-11T11:37:37;29.20;56.40
7842;DHT22;3966;51.052;13.820;2022-08-11T11:40:08;28.80;54.10
7842;DHT22;3966;51.052;13.820;2022-08-11T11:42:41;28.70;55.40
7842;DHT22;3966;51.052;13.820;2022-08-11T11:45:09;28.80;55.30
7842;DHT22;3966;51.052;13.820;2022-08-11T11:47:36;29.20;54.50
7842;DHT22;3966;51.052;13.820;2022-08-11T11:50:03;29.50;53.30
7842;DHT22;3966;51.052;13.820;2022-08-11T11:52:29;29.80;51.70
7842;DHT22;3966;51.052;13.820;2022-08-11T11:54:56;29.80;51.30
7842;DHT22;3966;51.052;13.820;2022-08-11T11:57:23;29.80;51.30
7842;DHT22;3966;51.052;13.820;2022-08-11T12:00:09;29.80;51.60
7842;DHT22;3966;51.052;13.820;2022-08-11T12:03:12;30.10;51.60
7842;DHT22;3966;51.052;13.820;2022-08-11T12:05:40;30.10;50.50
7842;DHT22;3966;51.052;13.820;2022-08-11T12:08:06;30.20;50.10
7842;DHT22;3966;51.052;13.820;2022-08-11T12:10:52;30.10;50.40
7842;DHT22;3966;51.052;13.820;2022-08-11T12:13:40;30.10;49.70
7842;DHT22;3966;51.052;13.820;2022-08-11T12:16:11;30.10;49.50
7842;DHT22;3966;51.052;13.820;2022-08-11T12:18:39;30.10;48.60
7842;DHT22;3966;51.052;13.820;2022-08-11T12:21:06;29.80;49.90
7842;DHT22;3966;51.052;13.820;2022-08-11T12:23:34;30.00;49.00
7842;DHT22;3966;51.052;13.820;2022-08-11T12:26:19;29.80;49.30
7842;DHT22;3966;51.052;13.820;2022-08-11T12:29:05;30.70;49.60
7842;DHT22;3966;51.052;13.820;2022-08-11T12:31:36;30.90;47.80
7842;DHT22;3966;51.052;13.820;2022-08-11T12:34:07;31.60;46.70
7842;DHT22;3966;51.052;13.820;2022-08-11T12:36:36;31.20;46.20
7842;DHT22;3966;51.052;13.820;2022-08-11T12:39:05;31.70;46.60
7842;DHT22;3966;51.052;13.820;2022-08-11T12:41:32;32.10;45.60
7842;DHT22;3966;51.052;13.820;2022-08-11T12:44:17;31.70;45.90
7842;DHT22;3966;51.052;13.820;2022-08-11T12:47:07;31.20;46.20
7842;DHT22;3966;51.052;13.820;2022-08-11T12:49:35;30.60;46.50
7842;DHT22;3966;51.052;13.820;2022-08-11T12:52:26;30.70;46.50
7842;DHT22;3966;51.052;13.820;2022-08-11T12:55:06;30.60;46.70
7842;DHT22;3966;51.052;13.820;2022-08-11T12:57:45;29.80;46.90
7842;DHT22;3966;51.052;13.820;2022-08-11T13:00:31;30.60;47.50
7842;DHT22;3966;51.052;13.820;2022-08-11T13:03:19;31.30;46.40
7842;DHT22;3966;51.052;13.820;2022-08-11T13:06:04;31.00;46.50
7842;DHT22;3966;51.052;13.820;2022-08-11T13:08:33;31.00;46.70
7842;DHT22;3966;51.052;13.820;2022-08-11T13:11:00;30.90;46.80
7842;DHT22;3966;51.052;13.820;2022-08-11T13:13:53;31.10;47.00
7842;DHT22;3966;51.052;13.820;2022-08-11T13:16:22;31.50;46.30
7842;DHT22;3966;51.052;13.820;2022-08-11T13:18:49;31.20;46.60
7842;DHT22;3966;51.052;13.820;2022-08-11T13:21:16;30.50;47.20
7842;DHT22;3966;51.052;13.820;2022-08-11T13:23:42;31.20;46.20
7842;DHT22;3966;51.052;13.820;2022-08-11T13:26:09;31.40;45.80
7842;DHT22;3966;51.052;13.820;2022-08-11T13:28:36;32.40;45.80
7842;DHT22;3966;51.052;13.820;2022-08-11T13:31:02;33.30;44.40
7842;DHT22;3966;51.052;13.820;2022-08-11T13:33:47;32.10;44.90
7842;DHT22;3966;51.052;13.820;2022-08-11T13:36:19;31.50;45.80
7842;DHT22;3966;51.052;13.820;2022-08-11T13:38:46;32.10;45.80
7842;DHT22;3966;51.052;13.820;2022-08-11T13:41:12;32.40;45.10
7842;DHT22;3966;51.052;13.820;2022-08-11T13:43:57;31.80;45.20
7842;DHT22;3966;51.052;13.820;2022-08-11T13:46:24;32.00;44.90
7842;DHT22;3966;51.052;13.820;2022-08-11T13:48:53;32.20;44.70
7842;DHT22;3966;51.052;13.820;2022-08-11T13:51:20;32.80;44.40
7842;DHT22;3966;51.052;13.820;2022-08-11T13:53:58;33.20;44.20
7842;DHT22;3966;51.052;13.820;2022-08-11T13:56:25;33.80;43.70
7842;DHT22;3966;51.052;13.820;2022-08-11T13:58:53;34.20;43.70
7842;DHT22;3966;51.052;13.820;2022-08-11T14:01:19;34.50;42.70
7842;DHT22;3966;51.052;13.820;2022-08-11T14:03:47;34.30;42.60
7842;DHT22;3966;51.052;13.820;2022-08-11T14:06:14;33.50;43.80
7842;DHT22;3966;51.052;13.820;2022-08-11T14:08:42;32.80;44.70
7842;DHT22;3966;51.052;13.820;2022-08-11T14:11:08;33.00;45.00
7842;DHT22;3966;51.052;13.820;2022-08-11T14:13:54;32.70;45.10
7842;DHT22;3966;51.052;13.820;2022-08-11T14:16:29;33.40;45.00
7842;DHT22;3966;51.052;13.820;2022-08-11T14:19:03;33.90;44.30
7842;DHT22;3966;51.052;13.820;2022-08-11T14:21:35;34.70;43.70
7842;DHT22;3966;51.052;13.820;2022-08-11T14:24:20;35.10;43.30
7842;DHT22;3966;51.052;13.820;2022-08-11T14:26:48;35.20;42.60
7842;DHT22;3966;51.052;13.820;2022-08-11T14:29:18;34.80;42.90
7842;DHT22;3966;51.052;13.820;2022-08-11T14:31:49;34.70;43.00
7842;DHT22;3966;51.052;13.820;2022-08-11T14:34:18;34.20;42.90
7842;DHT22;3966;51.052;13.820;2022-08-11T14:36:50;34.70;42.50
7842;DHT22;3966;51.052;13.820;2022-08-11T14:39:25;34.50;41.40
7842;DHT22;3966;51.052;13.820;2022-08-11T14:41:59;34.10;42.90
7842;DHT22;3966;51.052;13.820;2022-08-11T14:44:46;34.30;41.30
7842;DHT22;3966;51.052;13.820;2022-08-11T14:47:33;34.60;42.00
7842;DHT22;3966;51.052;13.820;2022-08-11T14:50:00;34.40;42.90
7842;DHT22;3966;51.052;13.820;2022-08-11T14:52:27;35.00;42.10
7842;DHT22;3966;51.052;13.820;2022-08-11T14:54:54;35.10;41.90
7842;DHT22;3966;51.052;13.820;2022-08-11T14:57:41;33.40;43.20
7842;DHT22;3966;51.052;13.820;2022-08-11T15:00:09;33.70;43.70
7842;DHT22;3966;51.052;13.820;2022-08-11T15:02:38;33.90;42.30
7842;DHT22;3966;51.052;13.820;2022-08-11T15:05:24;33.30;42.30
7842;DHT22;3966;51.052;13.820;2022-08-11T15:07:51;33.30;42.90
7842;DHT22;3966;51.052;13.820;2022-08-11T15:10:17;32.80;43.00
7842;DHT22;3966;51.052;13.820;2022-08-11T15:12:44;32.30;45.10
7842;DHT22;3966;51.052;13.820;2022-08-11T15:15:10;32.80;43.70
7842;DHT22;3966;51.052;13.820;2022-08-11T15:17:57;32.60;44.60
7842;DHT22;3966;51.052;13.820;2022-08-11T15:20:25;33.20;44.00
7842;DHT22;3966;51.052;13.820;2022-08-11T15:23:10;33.00;43.50
7842;DHT22;3966;51.052;13.820;2022-08-11T15:26:02;33.40;42.90
7842;DHT22;3966;51.052;13.820;2022-08-11T15:28:31;34.10;43.30
7842;DHT22;3966;51.052;13.820;2022-08-11T15:31:19;34.50;42.50
7842;DHT22;3966;51.052;13.820;2022-08-11T15:34:08;34.80;41.70
7842;DHT22;3966;51.052;13.820;2022-08-11T15:36:57;35.70;40.90
7842;DHT22;3966;51.052;13.820;2022-08-11T15:43:14;35.20;41.30
7842;DHT22;3966;51.052;13.820;2022-08-11T15:46:05;34.70;41.10
7842;DHT22;3966;51.052;13.820;2022-08-11T15:51:08;35.10;40.80
7842;DHT22;3966;51.052;13.820;2022-08-11T15:53:46;34.80;40.90
7842;DHT22;3966;51.052;13.820;2022-08-11T15:56:14;34.50;41.60
7842;DHT22;3966;51.052;13.820;2022-08-11T15:58:44;34.70;41.40
7842;DHT22;3966;51.052;13.820;2022-08-11T16:01:30;34.30;41.30
7842;DHT22;3966;51.052;13.820;2022-08-11T16:04:20;34.00;41.80
7842;DHT22;3966;51.052;13.820;2022-08-11T16:09:22;34.20;43.10
7842;DHT22;3966;51.052;13.820;2022-08-11T16:11:50;34.30;42.10
7842;DHT22;3966;51.052;13.820;2022-08-11T16:14:17;34.20;42.10
7842;DHT22;3966;51.052;13.820;2022-08-11T16:17:03;34.90;41.20
7842;DHT22;3966;51.052;13.820;2022-08-11T16:19:32;34.70;41.40
7842;DHT22;3966;51.052;13.820;2022-08-11T16:22:02;34.50;41.70
7842;DHT22;3966;51.052;13.820;2022-08-11T16:24:32;34.40;41.50
7842;DHT22;3966;51.052;13.820;2022-08-11T16:27:00;34.30;41.60
7842;DHT22;3966;51.052;13.820;2022-08-11T16:29:28;34.90;41.30
7842;DHT22;3966;51.052;13.820;2022-08-11T16:31:56;34.90;40.70
7842;DHT22;3966;51.052;13.820;2022-08-11T16:34:43;34.60;41.70
7842;DHT22;3966;51.052;13.820;2022-08-11T16:37:32;34.30;41.80
7842;DHT22;3966;51.052;13.820;2022-08-11T16:40:17;34.60;42.00
7842;DHT22;3966;51.052;13.820;2022-08-11T16:42:45;35.30;41.80
7842;DHT22;3966;51.052;13.820;2022-08-11T16:45:31;35.00;41.30
7842;DHT22;3966;51.052;13.820;2022-08-11T16:48:17;34.70;42.00
7842;DHT22;3966;51.052;13.820;2022-08-11T16:50:44;34.70;41.70
7842;DHT22;3966;51.052;13.820;2022-08-11T16:53:10;34.60;42.50
7842;DHT22;3966;51.052;13.820;2022-08-11T16:55:36;34.50;42.60
7842;DHT22;3966;51.052;13.820;2022-08-11T16:58:02;34.10;42.40
7842;DHT22;3966;51.052;13.820;2022-08-11T17:00:48;33.90;43.30
7842;DHT22;3966;51.052;13.820;2022-08-11T17:03:16;33.90;42.50
7842;DHT22;3966;51.052;13.820;2022-08-11T17:06:02;34.00;42.80
7842;DHT22;3966;51.052;13.820;2022-08-11T17:08:51;33.40;43.40
7842;DHT22;3966;51.052;13.820;2022-08-11T17:11:46;33.70;43.00
7842;DHT22;3966;51.052;13.820;2022-08-11T17:14:45;33.30;43.20
7842;DHT22;3966;51.052;13.820;2022-08-11T17:17:15;33.70;43.50
7842;DHT22;3966;51.052;13.820;2022-08-11T17:19:49;33.50;42.80
7842;DHT22;3966;51.052;13.820;2022-08-11T17:22:18;32.80;43.90
7842;DHT22;3966;51.052;13.820;2022-08-11T17:25:04;32.70;44.80
7842;DHT22;3966;51.052;13.820;2022-08-11T17:27:31;32.60;44.70
7842;DHT22;3966;51.052;13.820;2022-08-11T17:30:01;32.40;45.40
7842;DHT22;3966;51.052;13.820;2022-08-11T17:32:33;32.30;44.90
7842;DHT22;3966;51.052;13.820;2022-08-11T17:35:20;31.60;47.00
7842;DHT22;3966;51.052;13.820;2022-08-11T17:38:21;31.70;45.60
7842;DHT22;3966;51.052;13.820;2022-08-11T17:40:52;31.70;46.90
7842;DHT22;3966;51.052;13.820;2022-08-11T17:43:37;31.50;46.10
7842;DHT22;3966;51.052;13.820;2022-08-11T17:46:22;31.40;46.10
7842;DHT22;3966;51.052;13.820;2022-08-11T17:49:08;30.90;46.60
7842;DHT22;3966;51.052;13.820;2022-08-11T17:51:35;30.90;47.20
7842;DHT22;3966;51.052;13.820;2022-08-11T17:54:20;30.90;47.90
7842;DHT22;3966;51.052;13.820;2022-08-11T17:57:07;30.80;48.10
7842;DHT22;3966;51.052;13.820;2022-08-11T17:59:52;30.10;48.60
7842;DHT22;3966;51.052;13.820;2022-08-11T18:05:15;29.30;50.00
7842;DHT22;3966;51.052;13.820;2022-08-11T18:07:43;28.90;50.90
7842;DHT22;3966;51.052;13.820;2022-08-11T18:10:30;28.80;51.70
7842;DHT22;3966;51.052;13.820;2022-08-11T18:13:16;28.60;51.80
7842;DHT22;3966;51.052;13.820;2022-08-11T18:16:02;28.60;52.00
7842;DHT22;3966;51.052;13.820;2022-08-11T18:18:46;28.20;51.90
7842;DHT22;3966;51.052;13.820;2022-08-11T18:21:30;27.80;52.80
7842;DHT22;3966;51.052;13.820;2022-08-11T18:24:18;27.60;53.50
7842;DHT22;3966;51.052;13.820;2022-08-11T18:27:05;27.50;54.10
7842;DHT22;3966;51.052;13.820;2022-08-11T18:29:51;27.40;53.70
7842;DHT22;3966;51.052;13.820;2022-08-11T18:32:38;27.30;54.40
7842;DHT22;3966;51.052;13.820;2022-08-11T18:35:24;27.00;54.00
7842;DHT22;3966;51.052;13.820;2022-08-11T18:38:10;26.90;54.10
7842;DHT22;3966;51.052;13.820;2022-08-11T18:40:56;26.70;54.50
7842;DHT22;3966;51.052;13.820;2022-08-11T18:43:44;26.70;54.90
7842;DHT22;3966;51.052;13.820;2022-08-11T18:46:33;26.50;55.10
7842;DHT22;3966;51.052;13.820;2022-08-11T18:49:22;26.40;55.10
7842;DHT22;3966;51.052;13.820;2022-08-11T18:52:08;26.30;55.60
7842;DHT22;3966;51.052;13.820;2022-08-11T18:54:56;26.30;55.70
7842;DHT22;3966;51.052;13.820;2022-08-11T18:57:41;26.10;55.70
7842;DHT22;3966;51.052;13.820;2022-08-11T19:00:27;26.00;56.00
7842;DHT22;3966;51.052;13.820;2022-08-11T19:03:13;25.90;56.10
7842;DHT22;3966;51.052;13.820;2022-08-11T19:06:01;25.90;56.40
7842;DHT22;3966;51.052;13.820;2022-08-11T19:08:52;25.90;57.00
7842;DHT22;3966;51.052;13.820;2022-08-11T19:11:37;25.70;56.90
7842;DHT22;3966;51.052;13.820;2022-08-11T19:14:23;25.70;56.50
7842;DHT22;3966;51.052;13.820;2022-08-11T19:17:09;25.70;56.40
7842;DHT22;3966;51.052;13.820;2022-08-11T19:19:55;25.70;56.80
7842;DHT22;3966;51.052;13.820;2022-08-11T19:22:40;25.60;56.30
7842;DHT22;3966;51.052;13.820;2022-08-11T19:25:26;25.60;56.70
7842;DHT22;3966;51.052;13.820;2022-08-11T19:28:12;25.50;56.90
7842;DHT22;3966;51.052;13.820;2022-08-11T19:30:57;25.40;57.20
7842;DHT22;3966;51.052;13.820;2022-08-11T19:33:43;25.40;57.40
7842;DHT22;3966;51.052;13.820;2022-08-11T19:36:29;25.30;57.40
7842;DHT22;3966;51.052;13.820;2022-08-11T19:39:14;25.20;57.90
7842;DHT22;3966;51.052;13.820;2022-08-11T19:41:59;25.10;58.70
7842;DHT22;3966;51.052;13.820;2022-08-11T19:44:45;25.10;58.20
7842;DHT22;3966;51.052;13.820;2022-08-11T19:47:29;25.00;58.30
7842;DHT22;3966;51.052;13.820;2022-08-11T19:50:15;24.90;59.00
7842;DHT22;3966;51.052;13.820;2022-08-11T19:53:01;24.90;59.70
7842;DHT22;3966;51.052;13.820;2022-08-11T19:55:47;24.80;58.80
7842;DHT22;3966;51.052;13.820;2022-08-11T19:58:33;24.70;60.00
7842;DHT22;3966;51.052;13.820;2022-08-11T20:01:17;24.70;60.50
7842;DHT22;3966;51.052;13.820;2022-08-11T20:04:02;24.60;60.40
7842;DHT22;3966;51.052;13.820;2022-08-11T20:06:47;24.50;60.80
7842;DHT22;3966;51.052;13.820;2022-08-11T20:09:31;24.40;60.80
7842;DHT22;3966;51.052;13.820;2022-08-11T20:12:16;24.40;60.70
7842;DHT22;3966;51.052;13.820;2022-08-11T20:15:02;24.40;60.90
7842;DHT22;3966;51.052;13.820;2022-08-11T20:17:48;24.30;62.00